createdAt,value
2022-10-03T00:00:23.619Z,97974.25
2022-10-03T00:03:27.653Z,97983.63
2022-10-03T00:06:11.651Z,97971.69
2022-10-03T00:09:22.803Z,97965.75
2022-10-03T00:12:19.035Z,97985.31
2022-10-03T00:15:08.988Z,97973.41
2022-10-03T00:17:57.606Z,97956.38
2022-10-03T00:20:48.196Z,97970.84
2022-10-03T00:23:41.848Z,97967.44
2022-10-03T00:26:30.911Z,97967.44
2022-10-03T00:29:36.472Z,97956.38
2022-10-03T00:32:10.197Z,97969.13
2022-10-03T00:34:52.897Z,97954.66
2022-10-03T00:37:39.362Z,97953.81
2022-10-03T00:40:24.583Z,97961.47
2022-10-03T00:43:06.222Z,97952.97
2022-10-03T00:45:47.934Z,97955.50
2022-10-03T00:48:29.738Z,97962.31
2022-10-03T00:51:12.537Z,97953.81
2022-10-03T00:54:09.547Z,97944.44
2022-10-03T00:56:42.238Z,97937.63
2022-10-03T00:59:35.055Z,97933.38
2022-10-03T01:02:26.995Z,97923.16
2022-10-03T01:05:38.588Z,97930.81
2022-10-03T01:09:06.831Z,97920.59
2022-10-03T01:11:41.935Z,97928.25
2022-10-03T01:14:32.338Z,97929.97
2022-10-03T01:17:09.595Z,97916.34
2022-10-03T01:19:57.809Z,97918.03
2022-10-03T01:22:37.311Z,97924.03
2022-10-03T01:25:19.219Z,97926.56
2022-10-03T01:28:13.379Z,97919.75
2022-10-03T01:31:03.130Z,97918.03
2022-10-03T01:33:48.441Z,97908.69
2022-10-03T01:36:38.362Z,97912.94
2022-10-03T01:39:10.820Z,97914.63
2022-10-03T01:41:59.234Z,97907.81
2022-10-03T01:44:28.435Z,97914.63
2022-10-03T01:47:08.611Z,97904.41
2022-10-03T01:50:00.576Z,97918.88
2022-10-03T01:52:39.169Z,97919.75
2022-10-03T01:55:22.811Z,97909.53
2022-10-03T01:58:06.429Z,97915.50
2022-10-03T02:00:44.165Z,97886.56
2022-10-03T02:03:25.335Z,97902.72
2022-10-03T02:06:06.849Z,97902.72
2022-10-03T02:08:37.131Z,97908.69
2022-10-03T02:11:10.363Z,97906.97
2022-10-03T02:13:53.078Z,97904.44
2022-10-03T02:16:39.382Z,97906.16
2022-10-03T02:19:06.275Z,97902.72
2022-10-03T02:21:34.377Z,97900.19
2022-10-03T02:24:15.867Z,97901.03
2022-10-03T02:27:24.896Z,97902.72
2022-10-03T02:30:09.250Z,97911.25
2022-10-03T02:33:17.724Z,97907.84
2022-10-03T02:36:09.091Z,97907.84
2022-10-03T02:38:50.738Z,97902.72
2022-10-03T02:41:55.651Z,97898.47
2022-10-03T02:44:30.474Z,97900.16
2022-10-03T02:47:09.150Z,97901.03
2022-10-03T02:49:57.849Z,97897.59
2022-10-03T02:52:24.379Z,97902.72
2022-10-03T02:54:54.084Z,97906.97
2022-10-03T02:57:29.695Z,97902.72
2022-10-03T02:59:59.121Z,97902.72
2022-10-03T03:03:07.023Z,97905.28
2022-10-03T03:05:58.089Z,97898.47
2022-10-03T03:08:49.654Z,97902.72
2022-10-03T03:11:26.152Z,97908.69
2022-10-03T03:14:29.259Z,97894.22
2022-10-03T03:17:01.415Z,97884.00
2022-10-03T03:19:53.974Z,97892.53
2022-10-03T03:22:25.320Z,97889.09
2022-10-03T03:25:13.181Z,97895.06
2022-10-03T03:28:21.079Z,97886.56
2022-10-03T03:31:16.726Z,97896.75
2022-10-03T03:34:09.855Z,97880.59
2022-10-03T03:37:02.116Z,97878.91
2022-10-03T03:39:42.207Z,97883.16
2022-10-03T03:42:24.103Z,97889.97
2022-10-03T03:44:58.919Z,97884.84
2022-10-03T03:47:34.275Z,97873.75
2022-10-03T03:50:26.229Z,97872.03
2022-10-03T03:53:13.992Z,97868.66
2022-10-03T03:56:17.526Z,97859.28
2022-10-03T03:59:21.877Z,97866.09
2022-10-03T04:02:07.839Z,97862.69
2022-10-03T04:04:46.834Z,97862.69
2022-10-03T04:07:43.827Z,97849.03
2022-10-03T04:10:36.168Z,97860.97
2022-10-03T04:13:09.941Z,97860.94
2022-10-03T04:16:01.553Z,97865.22
2022-10-03T04:19:19.340Z,97861.81
2022-10-03T04:21:50.355Z,97855.00
2022-10-03T04:24:29.278Z,97866.94
2022-10-03T04:27:24.675Z,97856.69
2022-10-03T04:30:15.648Z,97852.41
2022-10-03T04:33:07.349Z,97844.75
2022-10-03T04:35:58.116Z,97859.19
2022-10-03T04:38:51.845Z,97842.09
2022-10-03T04:41:27.686Z,97847.16
2022-10-03T04:44:11.987Z,97852.25
2022-10-03T04:46:46.289Z,97846.25
2022-10-03T04:49:26.887Z,97832.56
2022-10-03T04:52:14.542Z,97847.00
2022-10-03T04:55:07.319Z,97834.16
2022-10-03T04:57:42.231Z,97838.38
2022-10-03T05:00:38.500Z,97837.47
2022-10-03T05:03:07.297Z,97845.13
2022-10-03T05:05:52.542Z,97843.41
2022-10-03T05:08:37.393Z,97837.41
2022-10-03T05:11:20.333Z,97837.41
2022-10-03T05:14:07.868Z,97844.19
2022-10-03T05:16:46.707Z,97856.97
2022-10-03T05:19:41.820Z,97839.91
2022-10-03T05:22:35.099Z,97845.88
2022-10-03T05:25:13.529Z,97846.69
2022-10-03T05:27:40.040Z,97845.81
2022-10-03T05:30:17.546Z,97837.31
2022-10-03T05:32:46.736Z,97845.75
2022-10-03T05:35:16.289Z,97850.88
2022-10-03T05:38:13.862Z,97836.34
2022-10-03T05:40:44.247Z,97848.22
2022-10-03T05:43:28.744Z,97849.94
2022-10-03T05:46:10.031Z,97849.94
2022-10-03T05:48:48.274Z,97858.47
2022-10-03T05:51:39.673Z,97857.59
2022-10-03T05:54:09.458Z,97856.72
2022-10-03T05:57:05.683Z,97843.06
2022-10-03T05:59:50.154Z,97840.53
2022-10-03T06:02:19.803Z,97848.13
2022-10-03T06:05:01.431Z,97851.50
2022-10-03T06:08:06.224Z,97860.00
2022-10-03T06:10:42.552Z,97864.25
2022-10-03T06:13:21.165Z,97863.31
2022-10-03T06:16:15.359Z,97859.84
2022-10-03T06:19:32.759Z,97858.09
2022-10-03T06:22:26.434Z,97862.38
2022-10-03T06:25:07.345Z,97872.59
2022-10-03T06:28:08.017Z,97880.22
2022-10-03T06:31:03.350Z,97879.34
2022-10-03T06:34:01.993Z,97884.47
2022-10-03T06:36:43.582Z,97893.84
2022-10-03T06:39:22.005Z,97882.75
2022-10-03T06:42:26.713Z,97885.28
2022-10-03T06:45:17.493Z,97889.50
2022-10-03T06:48:22.567Z,97892.91
2022-10-03T06:51:30.477Z,97897.13
2022-10-03T06:54:06.170Z,97891.13
2022-10-03T06:56:55.751Z,97891.97
2022-10-03T06:59:53.938Z,97909.94
2022-10-03T07:02:41.136Z,97896.22
2022-10-03T07:05:26.275Z,97909.03
2022-10-03T07:08:26.826Z,97889.31
2022-10-03T07:11:36.287Z,97902.16
2022-10-03T07:14:40.269Z,97895.28
2022-10-03T07:17:28.469Z,97892.72
2022-10-03T07:20:13.715Z,97898.66
2022-10-03T07:23:06.385Z,97912.28
2022-10-03T07:25:58.266Z,97890.88
2022-10-03T07:28:42.691Z,97897.63
2022-10-03T07:31:37.160Z,97878.84
2022-10-03T07:34:28.748Z,97894.09
2022-10-03T07:37:21.416Z,97885.47
2022-10-03T07:39:59.730Z,97891.28
2022-10-03T07:42:48.063Z,97879.22
2022-10-03T07:45:39.473Z,97886.84
2022-10-03T07:48:15.133Z,97879.19
2022-10-03T07:50:44.559Z,97885.94
2022-10-03T07:53:11.664Z,97901.31
2022-10-03T07:55:38.136Z,97894.41
2022-10-03T07:58:16.594Z,97890.06
2022-10-03T08:01:07.824Z,97897.66
2022-10-03T08:03:37.307Z,97894.97
2022-10-03T08:06:28.518Z,97894.03
2022-10-03T08:09:13.811Z,97894.94
2022-10-03T08:11:49.564Z,97898.44
2022-10-03T08:14:16.546Z,97890.81
2022-10-03T08:16:52.693Z,97898.53
2022-10-03T08:19:41.280Z,97897.75
2022-10-03T08:22:32.203Z,97893.44
2022-10-03T08:25:37.231Z,97898.63
2022-10-03T08:28:24.860Z,97901.13
2022-10-03T08:31:09.991Z,97906.34
2022-10-03T08:34:11.581Z,97903.81
2022-10-03T08:37:05.547Z,97910.63
2022-10-03T08:39:47.855Z,97911.41
2022-10-03T08:42:41.812Z,97921.56
2022-10-03T08:45:25.539Z,97918.91
2022-10-03T08:47:57.853Z,97924.84
2022-10-03T08:50:49.580Z,97943.63
2022-10-03T08:53:28.176Z,97918.59
2022-10-03T08:55:55.728Z,97913.28
2022-10-03T08:58:50.339Z,97920.03
2022-10-03T09:01:48.994Z,97926.88
2022-10-03T09:04:39.374Z,97907.28
2022-10-03T09:07:17.526Z,97910.75
2022-10-03T09:10:12.421Z,97902.97
2022-10-03T09:12:42.683Z,97907.19
2022-10-03T09:15:14.372Z,97917.34
2022-10-03T09:17:46.935Z,97907.78
2022-10-03T09:20:35.420Z,97918.00
2022-10-03T09:23:33.253Z,97925.53
2022-10-03T09:26:08.937Z,97919.63
2022-10-03T09:29:00.005Z,97910.22
2022-10-03T09:31:46.690Z,97912.75
2022-10-03T09:34:43.540Z,97922.19
2022-10-03T09:37:25.259Z,97916.09
2022-10-03T09:40:16.982Z,97914.34
2022-10-03T09:43:26.213Z,97921.00
2022-10-03T09:46:07.453Z,97918.06
2022-10-03T09:49:03.835Z,97917.78
2022-10-03T09:51:42.957Z,97934.75
2022-10-03T09:54:18.668Z,97905.50
2022-10-03T09:57:08.788Z,97917.44
2022-10-03T09:59:57.524Z,97925.06
2022-10-03T10:02:55.016Z,97907.78
2022-10-03T10:05:59.111Z,97912.09
2022-10-03T10:08:45.235Z,97921.66
2022-10-03T10:11:22.789Z,97913.13
2022-10-03T10:14:15.597Z,97919.28
2022-10-03T10:17:10.117Z,97906.50
2022-10-03T10:19:51.353Z,97923.75
2022-10-03T10:22:56.900Z,97923.63
2022-10-03T10:25:29.484Z,97927.88
2022-10-03T10:28:44.944Z,97931.25
2022-10-03T10:31:30.123Z,97930.41
2022-10-03T10:34:23.882Z,97938.09
2022-10-03T10:37:33.416Z,97927.28
2022-10-03T10:40:12.636Z,97958.41
2022-10-03T10:42:54.142Z,97948.94
2022-10-03T10:45:45.672Z,97949.66
2022-10-03T10:48:31.105Z,97949.81
2022-10-03T10:51:07.129Z,97950.28
2022-10-03T10:54:07.649Z,97976.25
2022-10-03T10:57:03.537Z,97943.44
2022-10-03T10:59:48.405Z,97956.44
2022-10-03T11:02:43.358Z,97945.81
2022-10-03T11:05:47.476Z,97943.41
2022-10-03T11:08:23.080Z,97948.59
2022-10-03T11:11:04.927Z,97948.53
2022-10-03T11:14:00.351Z,97936.50
2022-10-03T11:16:35.357Z,97947.66
2022-10-03T11:19:39.120Z,97944.19
2022-10-03T11:22:26.808Z,97946.69
2022-10-03T11:25:22.392Z,97952.75
2022-10-03T11:28:30.401Z,97954.50
2022-10-03T11:31:18.739Z,97940.16
2022-10-03T11:33:47.960Z,97933.25
2022-10-03T11:36:39.289Z,97940.03
2022-10-03T11:39:24.796Z,97939.78
2022-10-03T11:41:58.873Z,97936.69
2022-10-03T11:45:04.929Z,97932.19
2022-10-03T11:47:56.296Z,97948.66
2022-10-03T11:50:42.674Z,97939.25
2022-10-03T11:53:11.943Z,97949.69
2022-10-03T11:55:53.981Z,97933.38
2022-10-03T11:58:37.923Z,97923.72
2022-10-03T12:01:26.001Z,97922.75
2022-10-03T12:04:36.978Z,97935.72
2022-10-03T12:07:31.674Z,97929.91
2022-10-03T12:10:03.945Z,97956.66
2022-10-03T12:12:43.905Z,97975.75
2022-10-03T12:15:32.299Z,97964.91
2022-10-03T12:18:42.778Z,97954.81
2022-10-03T12:21:29.693Z,97947.81
2022-10-03T12:24:04.408Z,97958.72
2022-10-03T12:26:49.425Z,97952.41
2022-10-03T12:29:19.760Z,97940.25
2022-10-03T12:32:05.839Z,97949.66
2022-10-03T12:34:58.711Z,97942.72
2022-10-03T12:37:35.859Z,97949.56
2022-10-03T12:40:22.951Z,97938.22
2022-10-03T12:42:58.591Z,97946.06
2022-10-03T12:45:30.559Z,97963.50
2022-10-03T12:48:07.506Z,97937.19
2022-10-03T12:50:43.347Z,97967.53
2022-10-03T12:53:16.037Z,97972.31
2022-10-03T12:56:00.795Z,97975.09
2022-10-03T12:58:39.517Z,97970.28
2022-10-03T13:01:16.962Z,97963.38
2022-10-03T13:03:58.734Z,97965.78
2022-10-03T13:07:03.323Z,97955.06
2022-10-03T13:09:37.156Z,97967.47
2022-10-03T13:12:22.036Z,97947.63
2022-10-03T13:15:39.586Z,97951.03
2022-10-03T13:18:24.307Z,97968.31
2022-10-03T13:21:44.525Z,97947.84
2022-10-03T13:24:17.611Z,97939.47
2022-10-03T13:26:56.220Z,97940.28
2022-10-03T13:29:25.499Z,97942.06
2022-10-03T13:32:17.022Z,97940.50
2022-10-03T13:35:27.270Z,97932.00
2022-10-03T13:38:07.233Z,97938.00
2022-10-03T13:40:43.361Z,97937.16
2022-10-03T13:43:14.892Z,97917.56
2022-10-03T13:45:47.149Z,97926.91
2022-10-03T13:48:20.515Z,97913.34
2022-10-03T13:51:02.014Z,97920.09
2022-10-03T13:53:58.802Z,97915.59
2022-10-03T13:56:46.981Z,97926.59
2022-10-03T13:59:16.205Z,97917.91
2022-10-03T14:02:04.571Z,97916.94
2022-10-03T14:04:31.207Z,97925.41
2022-10-03T14:07:31.921Z,97915.97
2022-10-03T14:10:26.332Z,97911.75
2022-10-03T14:13:16.271Z,97917.81
2022-10-03T14:15:58.329Z,97908.41
2022-10-03T14:18:55.377Z,97905.66
2022-10-03T14:21:49.315Z,97895.03
2022-10-03T14:24:20.418Z,97886.66
2022-10-03T14:27:01.607Z,97884.25
2022-10-03T14:29:47.248Z,97881.78
2022-10-03T14:32:47.799Z,97888.75
2022-10-03T14:35:17.947Z,97893.66
2022-10-03T14:38:12.219Z,97902.53
2022-10-03T14:40:56.507Z,97888.19
2022-10-03T14:43:44.105Z,97884.38
2022-10-03T14:46:10.904Z,97886.50
2022-10-03T14:48:44.719Z,97879.84
2022-10-03T14:51:30.430Z,97902.31
2022-10-03T14:54:05.243Z,97897.69
2022-10-03T14:56:41.347Z,97898.63
2022-10-03T14:59:37.325Z,97898.03
2022-10-03T15:02:27.926Z,97896.25
2022-10-03T15:05:02.495Z,97894.63
2022-10-03T15:07:36.243Z,97899.97
2022-10-03T15:10:04.663Z,97891.50
2022-10-03T15:12:34.216Z,97895.88
2022-10-03T15:15:23.369Z,97893.22
2022-10-03T15:17:56.769Z,97891.69
2022-10-03T15:20:31.155Z,97895.09
2022-10-03T15:23:01.118Z,97897.81
2022-10-03T15:25:40.564Z,97883.25
2022-10-03T15:28:35.088Z,97893.50
2022-10-03T15:31:10.429Z,97894.44
2022-10-03T15:33:38.992Z,97890.19
2022-10-03T15:36:08.659Z,97914.19
2022-10-03T15:38:39.989Z,97886.78
2022-10-03T15:41:18.791Z,97891.03
2022-10-03T15:44:06.675Z,97901.50
2022-10-03T15:46:33.148Z,97926.38
2022-10-03T15:49:09.600Z,97930.00
2022-10-03T15:51:39.090Z,97928.47
2022-10-03T15:54:09.269Z,97930.59
2022-10-03T15:56:41.816Z,97952.81
2022-10-03T15:59:20.405Z,97932.59
2022-10-03T16:01:51.328Z,97944.69
2022-10-03T16:04:21.817Z,97957.72
2022-10-03T16:06:53.981Z,97949.22
2022-10-03T16:09:23.557Z,97949.44
2022-10-03T16:11:50.012Z,97948.88
2022-10-03T16:14:31.867Z,97938.59
2022-10-03T16:17:02.290Z,97932.63
2022-10-03T16:19:41.680Z,97929.22
2022-10-03T16:22:24.366Z,97932.66
2022-10-03T16:25:01.705Z,97932.56
2022-10-03T16:27:31.504Z,97928.34
2022-10-03T16:30:16.096Z,97928.28
2022-10-03T16:32:53.282Z,97912.06
2022-10-03T16:35:36.967Z,97929.13
2022-10-03T16:38:14.588Z,97913.72
2022-10-03T16:40:41.239Z,97903.56
2022-10-03T16:43:09.776Z,97928.34
2022-10-03T16:45:44.161Z,97906.94
2022-10-03T16:48:42.243Z,97918.03
2022-10-03T16:51:23.440Z,97916.34
2022-10-03T16:53:53.150Z,97922.38
2022-10-03T16:56:27.052Z,97916.44
2022-10-03T16:58:56.346Z,97913.91
2022-10-03T17:01:32.331Z,97912.19
2022-10-03T17:04:12.196Z,97925.03
2022-10-03T17:06:40.008Z,97927.50
2022-10-03T17:09:24.957Z,97923.25
2022-10-03T17:11:57.510Z,97905.38
2022-10-03T17:14:28.258Z,97910.50
2022-10-03T17:17:04.860Z,97923.22
2022-10-03T17:19:50.083Z,97907.09
2022-10-03T17:22:40.571Z,97931.03
2022-10-03T17:25:35.758Z,97930.19
2022-10-03T17:28:09.691Z,97901.19
2022-10-03T17:30:51.110Z,97910.50
2022-10-03T17:33:34.636Z,97926.75
2022-10-03T17:36:42.076Z,97927.63
2022-10-03T17:39:18.202Z,97934.50
2022-10-03T17:41:55.979Z,97914.91
2022-10-03T17:44:37.602Z,97934.63
2022-10-03T17:47:22.969Z,97933.75
2022-10-03T17:50:00.907Z,98000.44
2022-10-03T17:52:29.665Z,97991.34
2022-10-03T17:55:04.684Z,97989.13
2022-10-03T17:57:36.828Z,97996.16
2022-10-03T18:00:11.438Z,97983.56
2022-10-03T18:02:56.827Z,97998.06
2022-10-03T18:05:27.033Z,97998.94
2022-10-03T18:07:55.325Z,98010.03
2022-10-03T18:10:29.028Z,98025.38
2022-10-03T18:12:58.654Z,98027.94
2022-10-03T18:15:44.127Z,98040.72
2022-10-03T18:18:44.722Z,98042.41
2022-10-03T18:21:38.201Z,98043.25
2022-10-03T18:24:16.982Z,98055.19
2022-10-03T18:27:08.862Z,98051.81
2022-10-03T18:29:51.455Z,98057.78
2022-10-03T18:32:23.579Z,98067.97
2022-10-03T18:35:11.333Z,98069.69
2022-10-03T18:37:40.596Z,98073.09
2022-10-03T18:40:18.979Z,98078.19
2022-10-03T18:42:50.349Z,98068.84
2022-10-03T18:45:27.426Z,98078.22
2022-10-03T18:48:01.195Z,98088.44
2022-10-03T18:50:36.125Z,98088.44
2022-10-03T18:53:34.541Z,98096.09
2022-10-03T18:56:09.455Z,98108.91
2022-10-03T18:58:39.664Z,98088.44
2022-10-03T19:01:15.914Z,98100.38
2022-10-03T19:03:59.336Z,98115.72
2022-10-03T19:06:41.060Z,98123.28
2022-10-03T19:09:19.572Z,98108.78
2022-10-03T19:12:10.408Z,98118.97
2022-10-03T19:15:14.156Z,98124.06
2022-10-03T19:18:26.328Z,98133.44
2022-10-03T19:21:01.438Z,98125.75
2022-10-03T19:23:32.120Z,98136.81
2022-10-03T19:26:07.337Z,98142.75
2022-10-03T19:28:39.013Z,98146.06
2022-10-03T19:31:16.117Z,98141.78
2022-10-03T19:33:47.258Z,98148.56
2022-10-03T19:36:25.320Z,98153.69
2022-10-03T19:38:54.303Z,98157.06
2022-10-03T19:41:20.790Z,98164.72
2022-10-03T19:43:50.047Z,98166.44
2022-10-03T19:46:16.700Z,98164.72
2022-10-03T19:48:58.717Z,98160.44
2022-10-03T19:51:27.045Z,98169.78
2022-10-03T19:53:57.436Z,98173.22
2022-10-03T19:56:27.423Z,98170.56
2022-10-03T19:59:03.104Z,98176.56
2022-10-03T20:01:42.688Z,98181.63
2022-10-03T20:04:10.547Z,98185.03
2022-10-03T20:06:49.730Z,98190.97
2022-10-03T20:09:31.065Z,98177.28
2022-10-03T20:12:12.017Z,98192.66
2022-10-03T20:14:43.292Z,98196.91
2022-10-03T20:17:21.516Z,98203.75
2022-10-03T20:20:17.060Z,98193.41
2022-10-03T20:22:43.824Z,98194.25
2022-10-03T20:25:28.599Z,98195.19
2022-10-03T20:28:01.002Z,98194.34
2022-10-03T20:30:36.796Z,98201.19
2022-10-03T20:33:04.999Z,98195.19
2022-10-03T20:35:51.180Z,98198.63
2022-10-03T20:38:26.805Z,98206.19
2022-10-03T20:41:04.148Z,98202.78
2022-10-03T20:43:43.407Z,98201.91
2022-10-03T20:46:33.160Z,98202.78
2022-10-03T20:49:29.581Z,98211.28
2022-10-03T20:52:07.685Z,98210.34
2022-10-03T20:54:49.156Z,98213.75
2022-10-03T20:57:20.432Z,98207.84
2022-10-03T21:00:12.337Z,98214.69
2022-10-03T21:02:59.217Z,98202.72
2022-10-03T21:05:36.113Z,98213.72
2022-10-03T21:08:29.622Z,98211.22
2022-10-03T21:11:00.456Z,98229.09
2022-10-03T21:13:43.800Z,98212.06
2022-10-03T21:16:30.057Z,98215.44
2022-10-03T21:19:01.470Z,98220.53
2022-10-03T21:21:42.221Z,98217.13
2022-10-03T21:24:30.644Z,98220.56
2022-10-03T21:27:05.085Z,98215.44
2022-10-03T21:29:34.343Z,98203.53
2022-10-03T21:32:09.665Z,98233.34
2022-10-03T21:34:47.320Z,98224.81
2022-10-03T21:37:37.191Z,98202.69
2022-10-03T21:40:37.494Z,98202.72
2022-10-03T21:43:03.963Z,98221.44
2022-10-03T21:46:04.791Z,98232.50
2022-10-03T21:48:56.002Z,98235.09
2022-10-03T21:51:28.627Z,98235.00
2022-10-03T21:53:58.401Z,98241.81
2022-10-03T21:56:37.128Z,98235.84
2022-10-03T21:59:24.878Z,98243.47
2022-10-03T22:02:16.970Z,98239.25
2022-10-03T22:04:43.540Z,98248.59
2022-10-03T22:07:17.248Z,98231.53
2022-10-03T22:09:49.380Z,98245.16
2022-10-03T22:12:17.902Z,98248.56
2022-10-03T22:15:10.458Z,98252.00
2022-10-03T22:17:58.027Z,98248.56
2022-10-03T22:20:31.056Z,98245.97
2022-10-03T22:23:28.673Z,98256.22
2022-10-03T22:26:19.501Z,98270.66
2022-10-03T22:28:49.178Z,98268.88
2022-10-03T22:31:33.482Z,98258.66
2022-10-03T22:34:09.122Z,98255.91
2022-10-03T22:36:37.992Z,98259.34
2022-10-03T22:39:14.274Z,98267.06
2022-10-03T22:41:43.927Z,98252.50
2022-10-03T22:44:12.881Z,98256.03
2022-10-03T22:46:45.204Z,98266.22
2022-10-03T22:49:37.814Z,98256.94
2022-10-03T22:52:08.056Z,98257.78
2022-10-03T22:54:41.413Z,98252.69
2022-10-03T22:57:10.416Z,98256.94
2022-10-03T22:59:47.610Z,98273.13
2022-10-03T23:02:16.089Z,98278.19
2022-10-03T23:04:55.993Z,98273.94
2022-10-03T23:07:40.537Z,98279.81
2022-10-03T23:10:13.249Z,98276.50
2022-10-03T23:12:44.676Z,98276.44
2022-10-03T23:15:16.628Z,98282.41
2022-10-03T23:17:46.014Z,98279.84
2022-10-03T23:20:12.474Z,98281.50
2022-10-03T23:22:43.849Z,98271.28
2022-10-03T23:25:23.135Z,98287.50
2022-10-03T23:28:15.888Z,98286.59
2022-10-03T23:30:52.092Z,98290.91
2022-10-03T23:33:38.531Z,98294.34
2022-10-03T23:36:25.246Z,98281.59
2022-10-03T23:38:54.587Z,98288.34
2022-10-03T23:41:42.105Z,98290.84
2022-10-03T23:44:37.177Z,98294.34
2022-10-03T23:47:06.715Z,98293.53
2022-10-03T23:49:35.388Z,98292.63
2022-10-03T23:52:02.218Z,98286.72
2022-10-03T23:54:28.918Z,98283.31
2022-10-03T23:57:06.241Z,98295.28
2022-10-03T23:59:36.945Z,98294.41
